Time;durP1;ratioP1;P1;durP2;ratioP2;P2;SDS_P1;SDS_P2;PMS_P1;PMS_P2;Temp;Humidity;BMP_temperature;BMP_pressure;BME280_temperature;BME280_humidity;BME280_pressure;Samples;Min_cycle;Max_cycle;Signal;HPM_P1;HPM_P2
2022/09/03 00:01:25;;;;;;;8.10;5.32;;;16.80;99.90;;;16.07;100.00;100547.81;4152920;28;20108;-81
2022/09/03 00:03:39;;;;;;;8.40;5.60;;;16.80;99.90;;;16.17;100.00;100558.94;4152612;28;20029;-81
2022/09/03 00:05:55;;;;;;;8.57;5.60;;;16.80;99.90;;;16.06;100.00;100546.19;4151454;28;20030;-81
2022/09/03 00:08:23;;;;;;;6.10;5.18;;;16.80;99.90;;;16.20;100.00;100569.19;4135838;28;20034;-81
2022/09/03 00:11:01;;;;;;;7.82;5.47;;;16.70;99.90;;;16.17;100.00;100568.75;4152711;28;20029;-81
2022/09/03 00:13:06;;;;;;;7.88;5.25;;;16.70;99.90;;;16.02;100.00;100547.56;4150906;28;20030;-81
2022/09/03 00:15:16;;;;;;;8.70;6.40;;;16.70;99.90;;;16.10;100.00;100568.69;4135166;28;20018;-81
2022/09/03 00:17:24;;;;;;;8.52;5.93;;;16.70;99.90;;;16.08;100.00;100567.25;4135432;28;20560;-81
2022/09/03 00:19:44;;;;;;;7.40;5.90;;;16.70;99.90;;;16.06;100.00;100562.16;4151390;28;20029;-81
2022/09/03 00:21:58;;;;;;;5.65;4.55;;;16.70;99.90;;;15.98;100.00;100559.63;4151132;28;20037;-81
2022/09/03 00:24:02;;;;;;;8.98;5.95;;;16.70;99.90;;;15.97;100.00;100552.69;4135235;28;20026;-81
2022/09/03 00:26:11;;;;;;;8.15;5.10;;;16.70;99.90;;;16.14;100.00;100567.31;4152258;28;20038;-81
2022/09/03 00:28:38;;;;;;;7.85;4.93;;;16.70;99.90;;;16.17;100.00;100574.06;4152165;28;20371;-81
2022/09/03 00:30:41;;;;;;;7.43;4.82;;;16.70;99.90;;;16.21;100.00;100568.16;4151020;28;20046;-81
2022/09/03 00:33:08;;;;;;;9.90;5.55;;;16.80;99.90;;;16.27;100.00;100570.03;4151473;28;20036;-81
2022/09/03 00:35:30;;;;;;;8.98;5.70;;;16.80;99.90;;;16.26;100.00;100548.94;4184203;28;20037;-81
2022/09/03 00:37:33;;;;;;;8.43;6.22;;;16.90;99.90;;;16.38;100.00;100566.00;4136633;28;20030;-81
2022/09/03 00:39:36;;;;;;;13.90;7.35;;;17.00;99.90;;;16.30;100.00;100548.34;4135247;28;20037;-80
2022/09/03 00:42:12;;;;;;;8.70;6.13;;;17.00;99.90;;;16.37;100.00;100553.69;4151005;28;20604;-81
2022/09/03 00:44:47;;;;;;;;;;;17.10;99.90;;;16.35;100.00;100539.75;4151326;28;20500;-81
2022/09/03 00:46:56;;;;;;;12.32;6.13;;;17.10;99.90;;;16.64;100.00;100565.28;4152353;28;19910;-81
2022/09/03 00:50:03;;;;;;;10.55;6.97;;;17.20;99.90;;;16.71;100.00;100564.31;4150926;28;20585;-81
2022/09/03 00:52:30;;;;;;;8.70;5.43;;;17.30;99.90;;;16.79;100.00;100560.63;4150934;28;20092;-81
2022/09/03 00:54:52;;;;;;;7.47;6.13;;;17.40;99.90;;;16.85;100.00;100557.16;4151340;28;20037;-81
2022/09/03 00:57:24;;;;;;;9.38;7.07;;;17.40;99.90;;;16.80;100.00;100552.47;4151029;28;20058;-81
2022/09/03 00:59:55;;;;;;;12.15;7.07;;;17.40;99.90;;;16.85;100.00;100557.16;4150879;28;20695;-81
2022/09/03 01:02:16;;;;;;;10.95;6.85;;;17.40;99.90;;;16.87;100.00;100555.16;4153553;28;20030;-81
2022/09/03 01:04:34;;;;;;;8.77;6.68;;;17.40;99.90;;;16.83;100.00;100543.25;4155016;28;20038;-81
2022/09/03 01:07:30;;;;;;;13.23;9.48;;;17.40;99.90;;;16.72;100.00;100528.69;4155300;28;20026;-81
2022/09/03 01:09:49;;;;;;;9.52;7.20;;;17.40;99.90;;;16.86;100.00;100548.16;4155438;28;20053;-82
2022/09/03 01:12:23;;;;;;;10.80;8.15;;;17.40;99.90;;;16.81;100.00;100532.81;4154314;28;20045;-81
2022/09/03 01:14:47;;;;;;;11.90;9.00;;;17.40;99.90;;;16.68;100.00;100507.97;4154105;28;20111;-81
2022/09/03 01:17:12;;;;;;;11.38;7.47;;;17.50;99.90;;;16.88;100.00;100535.44;4154230;28;20427;-81
2022/09/03 01:19:57;;;;;;;14.63;8.65;;;17.50;99.90;;;16.85;100.00;100536.69;4169385;28;20069;-81
2022/09/03 01:22:33;;;;;;;12.40;8.52;;;17.50;99.90;;;16.80;100.00;100535.66;4170216;28;20029;-81
2022/09/03 01:24:57;;;;;;;9.30;8.35;;;17.40;99.90;;;16.75;100.00;100535.44;4154927;28;20076;-81
2022/09/03 01:27:16;;;;;;;12.48;8.73;;;17.40;99.90;;;16.57;100.00;100523.50;4153652;28;20060;-81
2022/09/03 01:29:44;;;;;;;11.52;8.18;;;17.30;99.90;;;16.57;100.00;100539.50;4153992;28;20086;-81
2022/09/03 01:32:03;;;;;;;11.30;8.45;;;17.20;99.90;;;16.32;100.00;100510.88;4153993;28;20037;-81
2022/09/03 01:34:30;;;;;;;12.80;8.35;;;17.20;99.90;;;16.41;100.00;100534.47;4153560;28;20018;-81
2022/09/03 01:36:55;;;;;;;12.30;8.48;;;17.10;99.90;;;16.41;100.00;100539.81;4154730;28;20026;-81
2022/09/03 01:39:03;;;;;;;15.05;10.07;;;17.00;99.90;;;16.35;100.00;100524.63;4154997;28;20057;-81
2022/09/03 01:44:25;;;;;;;12.68;10.15;;;17.10;99.90;;;16.42;100.00;100516.66;4154570;28;20040;-81
2022/09/03 01:46:44;;;;;;;13.27;9.98;;;17.10;99.90;;;16.62;100.00;100535.38;4153570;28;20026;-82
2022/09/03 01:49:15;;;;;;;14.60;10.63;;;17.20;99.90;;;16.59;100.00;100509.97;4154791;28;20076;-81
2022/09/03 01:51:31;;;;;;;15.73;12.17;;;17.30;99.90;;;16.64;100.00;100517.34;4153528;28;20061;-81
2022/09/03 01:54:12;;;;;;;14.98;12.13;;;17.30;99.90;;;16.83;100.00;100527.25;4138263;28;20026;-81
2022/09/03 01:56:58;;;;;;;13.50;11.18;;;17.40;99.90;;;16.86;100.00;100526.84;4154696;28;20030;-81
2022/09/03 01:59:23;;;;;;;15.00;12.18;;;17.40;99.90;;;16.87;100.00;100523.19;4153050;28;20593;-81
2022/09/03 02:01:49;;;;;;;14.52;11.32;;;17.50;99.90;;;16.88;100.00;100525.63;4154636;28;20060;-81
2022/09/03 02:03:50;;;;;;;14.25;10.45;;;17.50;99.90;;;16.91;100.00;100522.56;4153202;28;20109;-81
2022/09/03 02:05:54;;;;;;;15.00;10.95;;;17.60;99.90;;;16.87;100.00;100515.19;4153234;28;20465;-81
2022/09/03 02:08:09;;;;;;;13.88;9.48;;;17.60;99.90;;;16.90;100.00;100507.63;4154316;28;20392;-81
2022/09/03 02:10:22;;;;;;;10.60;8.50;;;17.60;99.90;;;16.77;100.00;100499.59;4186326;28;20052;-81
2022/09/03 02:12:23;;;;;;;12.43;8.85;;;17.60;99.90;;;16.82;100.00;100506.94;4152226;28;20100;-81
2022/09/03 02:14:27;;;;;;;14.02;9.00;;;17.50;99.90;;;16.72;100.00;100493.22;4153516;28;20018;-81
2022/09/03 02:16:31;;;;;;;11.57;9.18;;;17.50;99.90;;;16.84;100.00;100516.41;4153166;28;20025;-81
2022/09/03 02:18:49;;;;;;;11.77;9.20;;;17.50;99.90;;;16.85;100.00;100518.03;4185742;28;20040;-81
2022/09/03 02:20:53;;;;;;;10.93;8.57;;;17.50;99.90;;;16.92;100.00;100521.53;4153280;28;20072;-81
2022/09/03 02:22:55;;;;;;;13.02;9.52;;;17.60;99.90;;;16.89;100.00;100507.81;4154171;28;20121;-81
2022/09/03 02:24:56;;;;;;;11.75;9.20;;;17.60;99.90;;;16.92;100.00;100513.56;4152813;28;20041;-81
2022/09/03 02:26:57;;;;;;;12.30;9.00;;;17.60;99.90;;;16.93;100.00;100509.88;4154107;28;20033;-81
2022/09/03 02:29:00;;;;;;;15.48;9.32;;;17.60;99.90;;;16.90;100.00;100502.28;4136551;28;20045;-82
2022/09/03 02:31:01;;;;;;;13.75;9.82;;;17.70;99.90;;;17.01;100.00;100519.50;4154042;28;20033;-81
2022/09/03 02:33:02;;;;;;;13.00;10.90;;;17.70;99.90;;;16.97;100.00;100513.75;4153372;28;20038;-81
2022/09/03 02:35:04;;;;;;;14.32;10.98;;;17.70;99.90;;;16.89;100.00;100503.28;4153958;28;20018;-81
2022/09/03 02:37:15;;;;;;;12.48;9.20;;;17.70;99.90;;;16.97;100.00;100516.41;4153249;28;20118;-81
2022/09/03 02:39:16;;;;;;;13.95;10.93;;;17.70;99.90;;;16.93;100.00;100517.03;4153113;28;20018;-81
2022/09/03 02:41:17;;;;;;;12.40;10.07;;;17.70;99.90;;;17.11;100.00;100533.25;4169110;28;20452;-81
2022/09/03 02:43:26;;;;;;;12.45;9.63;;;17.70;99.90;;;16.94;100.00;100514.16;4136281;28;20030;-82
2022/09/03 02:45:28;;;;;;;11.15;9.45;;;17.70;99.90;;;17.03;100.00;100522.78;4153814;28;20026;-81
2022/09/03 02:47:32;;;;;;;14.27;10.70;;;17.70;99.90;;;16.96;100.00;100522.78;4152967;28;20025;-81
2022/09/03 02:49:34;;;;;;;12.73;9.95;;;17.80;99.90;;;16.95;100.00;100521.13;4152566;28;20025;-81
2022/09/03 02:51:39;;;;;;;11.23;9.73;;;17.80;99.90;;;17.17;100.00;100550.28;4152643;28;20034;-82
2022/09/03 02:53:40;;;;;;;11.75;10.00;;;17.80;99.90;;;16.97;100.00;100523.59;4136389;28;20148;-81
2022/09/03 02:55:42;;;;;;;13.60;10.00;;;17.80;99.90;;;17.05;100.00;100534.06;4152716;28;20097;-81
2022/09/03 02:57:43;;;;;;;11.18;9.13;;;17.80;99.90;;;17.12;100.00;100542.88;4152279;28;20045;-81
2022/09/03 02:59:44;;;;;;;13.23;10.90;;;17.80;99.90;;;17.06;100.00;100533.03;4136363;28;20052;-81
2022/09/03 03:01:45;;;;;;;13.63;10.73;;;17.80;99.90;;;17.08;100.00;100536.34;4153546;28;20560;-82
2022/09/03 03:03:46;;;;;;;13.63;10.05;;;17.80;99.90;;;17.06;100.00;100535.69;4153540;28;20037;-81
2022/09/03 03:05:51;;;;;;;18.08;11.07;;;17.80;99.90;;;17.11;100.00;100541.25;4153473;28;20031;-82
2022/09/03 03:07:52;;;;;;;13.70;10.20;;;17.80;99.90;;;17.12;100.00;100534.88;4136063;28;20073;-81
2022/09/03 03:09:53;;;;;;;11.02;9.30;;;17.90;99.90;;;17.09;100.00;100530.78;4153417;28;20041;-81
2022/09/03 03:11:54;;;;;;;11.85;10.05;;;17.90;99.90;;;17.09;100.00;100517.47;4152161;28;20053;-81
2022/09/03 03:13:55;;;;;;;15.75;11.48;;;17.90;99.90;;;17.07;100.00;100524.84;4153043;28;20474;-82
2022/09/03 03:16:02;;;;;;;12.68;10.38;;;17.90;99.90;;;17.11;100.00;100538.59;4136050;28;20023;-81
2022/09/03 03:18:03;;;;;;;13.35;11.20;;;17.90;99.90;;;17.07;100.00;100532.84;4153313;28;20025;-81
2022/09/03 03:20:04;;;;;;;14.65;12.07;;;17.90;99.90;;;17.07;100.00;100529.34;4151704;28;20025;-82
2022/09/03 03:22:05;;;;;;;15.63;11.77;;;17.80;99.90;;;17.07;100.00;100529.34;4151975;28;20034;-81
2022/09/03 03:24:07;;;;;;;12.40;11.10;;;17.90;99.90;;;17.07;100.00;100532.03;4151392;28;20022;-81
2022/09/03 03:26:12;;;;;;;15.48;11.95;;;17.80;99.90;;;16.97;100.00;100523.59;4155774;28;20077;-82
2022/09/03 03:28:14;;;;;;;13.50;12.05;;;17.80;99.90;;;16.97;100.00;100534.25;4151776;28;20088;-81
2022/09/03 03:30:14;;;;;;;16.30;12.70;;;17.70;99.90;;;16.95;100.00;100533.63;4153226;28;20026;-81
2022/09/03 03:32:15;;;;;;;13.48;11.27;;;17.70;99.90;;;17.06;100.00;100549.03;4151020;28;20022;-81
2022/09/03 03:34:16;;;;;;;15.00;12.75;;;17.70;99.90;;;16.97;100.00;100532.41;4152999;28;20030;-81
2022/09/03 03:36:17;;;;;;;13.95;12.23;;;17.70;99.90;;;17.03;100.00;100549.44;4153049;28;20073;-81
2022/09/03 03:38:18;;;;;;;16.15;12.73;;;17.70;99.90;;;17.04;100.00;100553.75;4152810;28;20097;-82
2022/09/03 03:40:19;;;;;;;17.80;14.45;;;17.70;99.90;;;17.03;100.00;100552.91;4151554;28;20117;-82
2022/09/03 03:42:20;;;;;;;18.88;13.10;;;17.70;99.90;;;16.96;100.00;100529.97;4152698;28;20033;-81
2022/09/03 03:44:21;;;;;;;14.75;12.45;;;17.70;99.90;;;16.90;100.00;100525.44;4152905;28;20036;-81
2022/09/03 03:46:24;;;;;;;17.23;13.05;;;17.70;99.90;;;16.96;100.00;100537.94;4152940;28;20038;-82
2022/09/03 03:48:25;;;;;;;16.80;13.65;;;17.70;99.90;;;16.90;100.00;100528.09;4135586;28;20037;-81
2022/09/03 03:50:26;;;;;;;16.25;13.75;;;17.70;99.90;;;16.78;100.00;100509.22;4168018;28;20037;-81
2022/09/03 03:52:27;;;;;;;18.17;13.07;;;17.70;99.90;;;16.98;100.00;100543.88;4135414;28;20161;-82
2022/09/03 03:54:29;;;;;;;17.05;13.20;;;17.60;99.90;;;16.98;100.00;100551.88;4152643;28;20037;-81
2022/09/03 03:56:30;;;;;;;13.32;11.93;;;17.60;99.90;;;16.97;100.00;100547.56;4152826;28;20046;-81
2022/09/03 03:58:32;;;;;;;16.08;14.32;;;17.60;99.90;;;16.84;100.00;100521.75;4152492;28;20022;-81
2022/09/03 04:00:37;;;;;;;13.70;11.50;;;17.60;99.90;;;16.79;100.00;100515.34;4135096;28;20030;-81
2022/09/03 04:02:38;;;;;;;15.70;13.07;;;17.60;99.90;;;16.74;100.00;100518.63;4151612;28;20049;-82
2022/09/03 04:04:38;;;;;;;14.82;12.65;;;17.60;99.90;;;16.74;100.00;100523.13;4151538;28;20089;-81
2022/09/03 04:06:39;;;;;;;14.93;12.40;;;17.60;99.90;;;16.91;100.00;100546.53;4135325;28;20069;-81
2022/09/03 04:08:42;;;;;;;14.32;11.90;;;17.60;99.90;;;16.78;100.00;100524.38;4152625;28;20050;-81
2022/09/03 04:10:46;;;;;;;15.75;12.63;;;17.50;99.90;;;16.69;100.00;100522.94;4167605;28;20050;-81
2022/09/03 04:12:46;;;;;;;14.65;12.90;;;17.50;99.90;;;16.63;100.00;100531.72;4152288;28;20034;-81
2022/09/03 04:14:47;;;;;;;19.83;15.18;;;17.40;99.90;;;16.46;100.00;100515.22;4151356;28;20030;-81
2022/09/03 04:16:49;;;;;;;19.35;15.30;;;17.30;99.90;;;16.50;100.00;100524.47;4152716;28;20029;-82
2022/09/03 04:18:52;;;;;;;21.98;16.63;;;17.20;99.90;;;16.39;100.00;100525.88;4151054;28;20057;-81
2022/09/03 04:20:58;;;;;;;18.98;15.32;;;17.20;99.90;;;16.48;100.00;100545.16;4135221;28;20034;-82
2022/09/03 04:23:00;;;;;;;19.95;16.55;;;17.10;99.90;;;16.33;100.00;100531.16;4152475;28;20084;-81
2022/09/03 04:25:01;;;;;;;19.45;15.98;;;17.10;99.90;;;16.31;100.00;100528.69;4151291;28;20094;-81
2022/09/03 04:27:02;;;;;;;18.55;15.55;;;17.00;99.90;;;16.19;100.00;100516.97;4134773;28;20034;-82
2022/09/03 04:29:09;;;;;;;20.25;14.32;;;17.00;99.90;;;16.18;100.00;100525.97;4151337;28;20068;-81
2022/09/03 04:31:12;;;;;;;20.40;15.52;;;16.90;99.90;;;16.20;100.00;100550.53;4151167;28;20113;-81
2022/09/03 04:33:13;;;;;;;19.33;14.85;;;16.80;99.90;;;16.03;100.00;100541.25;4151278;28;20026;-81
2022/09/03 04:35:14;;;;;;;18.60;15.40;;;16.80;99.90;;;16.03;100.00;100547.41;4134977;28;20585;-81
2022/09/03 04:37:18;;;;;;;14.73;12.55;;;16.70;99.90;;;16.02;100.00;100560.88;4150715;28;20092;-81
2022/09/03 04:39:19;;;;;;;18.08;14.60;;;16.60;99.90;;;16.06;100.00;100572.78;4152284;28;20022;-81
2022/09/03 04:41:27;;;;;;;26.27;16.33;;;16.60;99.90;;;16.08;100.00;100570.75;4151080;28;20497;-81
2022/09/03 04:43:28;;;;;;;21.02;15.10;;;16.60;99.90;;;15.85;100.00;100544.41;4152134;28;20116;-81
2022/09/03 04:45:29;;;;;;;21.05;16.17;;;16.60;99.90;;;16.01;100.00;100567.22;4134648;28;20092;-81
2022/09/03 04:47:30;;;;;;;21.08;14.80;;;16.60;99.90;;;15.80;100.00;100544.16;4150954;28;20030;-81
2022/09/03 04:49:31;;;;;;;20.40;16.63;;;16.50;99.90;;;15.89;100.00;100566.94;4150787;28;20034;-81
2022/09/03 04:51:32;;;;;;;21.58;16.20;;;16.50;99.90;;;15.71;100.00;100545.31;4150917;28;20034;-81
2022/09/03 04:53:45;;;;;;;20.17;15.98;;;16.50;99.90;;;15.79;100.00;100563.81;4151204;28;20100;-81
2022/09/03 04:55:46;;;;;;;19.45;14.95;;;16.40;99.90;;;15.56;100.00;100541.13;4152409;28;20053;-81
2022/09/03 04:57:46;;;;;;;24.85;17.77;;;16.40;99.90;;;15.60;100.00;100547.69;4151745;28;20528;-82
2022/09/03 04:59:48;;;;;;;28.30;21.85;;;16.30;99.90;;;15.57;100.00;100550.75;4152249;28;20030;-81
2022/09/03 05:01:51;;;;;;;28.05;19.15;;;16.30;99.90;;;15.56;100.00;100549.91;4151143;28;20034;-81
2022/09/03 05:03:54;;;;;;;29.97;20.80;;;16.30;99.90;;;15.45;100.00;100540.59;4166939;28;20088;-81
2022/09/03 05:05:55;;;;;;;30.42;21.13;;;16.30;99.90;;;15.39;100.00;100537.88;4152030;28;20602;-82
2022/09/03 05:08:03;;;;;;;24.95;18.52;;;16.20;99.90;;;15.40;100.00;100545.69;4152090;28;20029;-81
2022/09/03 05:10:19;;;;;;;28.52;21.25;;;16.20;99.90;;;15.52;100.00;100571.78;4167277;28;20081;-81
2022/09/03 05:12:22;;;;;;;30.13;22.27;;;16.10;99.90;;;15.37;100.00;100550.56;4166846;28;20034;-82
2022/09/03 05:14:23;;;;;;;37.37;24.87;;;16.10;99.90;;;15.47;100.00;100567.84;4151067;28;20069;-81
2022/09/03 05:16:27;;;;;;;35.05;23.63;;;16.10;99.90;;;15.37;100.00;100540.75;4151095;28;20273;-81
2022/09/03 05:18:28;;;;;;;34.33;23.52;;;16.10;99.90;;;15.40;100.00;100543.03;4150707;28;20025;-81
2022/09/03 05:20:31;;;;;;;39.28;26.92;;;16.20;99.90;;;15.44;100.00;100538.97;4150855;28;20041;-81
2022/09/03 05:22:33;;;;;;;40.40;28.40;;;16.20;99.90;;;15.70;100.00;100566.81;4152000;28;20026;-82
2022/09/03 05:24:34;;;;;;;46.03;31.25;;;16.30;99.90;;;15.71;100.00;100568.47;4151786;28;20034;-82
2022/09/03 05:26:38;;;;;;;46.30;31.60;;;16.40;99.90;;;15.62;100.00;100561.63;4152281;28;20030;-82
2022/09/03 05:28:41;;;;;;;46.55;31.75;;;16.40;99.90;;;15.55;100.00;100547.47;4150597;28;20093;-81
2022/09/03 05:30:42;;;;;;;46.95;30.60;;;16.40;99.90;;;15.72;100.00;100564.75;4151847;28;20517;-81
2022/09/03 05:32:43;;;;;;;42.17;30.60;;;16.40;99.90;;;15.53;100.00;100546.84;4150505;28;20084;-81
2022/09/03 05:34:44;;;;;;;42.42;30.48;;;16.40;99.90;;;15.56;100.00;100562.41;4151804;28;20497;-81
2022/09/03 05:36:45;;;;;;;41.97;28.55;;;16.40;99.90;;;15.63;100.00;100563.25;4151912;28;20030;-81
2022/09/03 05:38:47;;;;;;;43.20;31.23;;;16.50;99.90;;;15.80;100.00;100570.75;4151907;28;20022;-81
2022/09/03 05:40:48;;;;;;;43.33;29.63;;;16.50;99.90;;;15.83;100.00;100566.91;4150504;28;20576;-81
2022/09/03 05:42:56;;;;;;;36.85;27.40;;;16.50;99.90;;;15.96;100.00;100593.59;4151477;28;20030;-81
2022/09/03 05:44:57;;;;;;;36.28;27.10;;;16.60;99.90;;;15.97;100.00;100596.06;4150444;28;20033;-82
2022/09/03 05:46:59;;;;;;;35.17;25.50;;;16.60;99.90;;;16.01;100.00;100596.47;4150546;28;20161;-81
2022/09/03 05:49:02;;;;;;;36.78;26.75;;;16.70;99.90;;;15.98;100.00;100580.91;4153198;28;20409;-80
2022/09/03 05:51:09;;;;;;;30.73;23.30;;;16.70;99.90;;;16.03;100.00;100581.16;4137286;28;20033;-81
2022/09/03 05:53:10;;;;;;;34.58;26.63;;;16.80;99.90;;;16.03;100.00;100579.31;4165338;28;20034;-81
2022/09/03 05:55:11;;;;;;;35.08;26.08;;;16.80;99.90;;;16.08;100.00;100578.72;4146492;28;20485;-81
2022/09/03 05:57:13;;;;;;;34.25;25.98;;;16.80;99.90;;;16.11;100.00;100575.69;4153147;28;20426;-81
2022/09/03 05:59:14;;;;;;;38.38;27.60;;;16.90;99.90;;;16.27;100.00;100591.34;4153121;28;20060;-81
2022/09/03 06:01:27;;;;;;;36.58;26.25;;;16.90;99.90;;;16.34;100.00;100602.00;4153570;28;20026;-81
2022/09/03 06:03:28;;;;;;;33.97;25.93;;;16.90;99.90;;;16.33;100.00;100598.53;4154522;28;20116;-81
2022/09/03 06:05:29;;;;;;;32.63;26.25;;;17.00;99.90;;;16.34;100.00;100597.50;4153900;28;20265;-81
2022/09/03 06:07:32;;;;;;;28.60;21.38;;;17.10;99.90;;;16.37;100.00;100588.28;4153158;28;20033;-81
2022/09/03 06:09:32;;;;;;;32.63;26.08;;;17.10;99.90;;;16.55;100.00;100605.44;4169456;28;20525;-81
2022/09/03 06:11:35;;;;;;;29.52;21.90;;;17.20;99.90;;;16.46;100.00;100585.28;4154267;28;20068;-81
2022/09/03 06:13:36;;;;;;;29.45;22.40;;;17.20;99.90;;;16.54;100.00;100587.81;4152790;28;20097;-81
2022/09/03 06:15:37;;;;;;;29.35;23.17;;;17.20;99.90;;;16.64;100.00;100598.09;4153241;28;20112;-81
2022/09/03 06:17:38;;;;;;;30.00;23.02;;;17.30;99.90;;;16.64;100.00;100589.25;4153057;28;20097;-81
2022/09/03 06:19:39;;;;;;;26.63;21.60;;;17.30;99.90;;;16.71;100.00;100598.13;4169542;28;20029;-82
2022/09/03 06:21:42;;;;;;;28.23;21.23;;;17.40;99.90;;;16.81;100.00;100593.25;4154229;28;20026;-81
2022/09/03 06:23:49;;;;;;;28.42;22.83;;;17.50;99.90;;;16.82;100.00;100574.38;4153183;28;20445;-81
2022/09/03 06:26:08;;;;;;;30.77;25.50;;;17.50;99.90;;;17.05;100.00;100601.50;4152833;28;20038;-80
2022/09/03 06:28:08;;;;;;;28.27;22.52;;;17.60;99.90;;;17.16;100.00;100602.78;4154081;28;20112;-81
2022/09/03 06:30:10;;;;;;;31.95;23.00;;;17.70;99.90;;;17.13;100.00;100588.00;4136785;28;20034;-82
2022/09/03 06:32:11;;;;;;;29.88;24.25;;;17.80;99.90;;;17.34;100.00;100618.19;4185887;28;20029;-81
2022/09/03 06:34:12;;;;;;;28.40;22.38;;;17.80;99.90;;;17.34;100.00;100600.34;4153087;28;20037;-81
2022/09/03 06:36:17;;;;;;;28.60;22.45;;;17.90;99.90;;;17.46;100.00;100605.88;4152790;28;20547;-82
2022/09/03 06:38:20;;;;;;;29.00;22.88;;;18.00;99.90;;;17.49;100.00;100613.47;4152816;28;20026;-82
2022/09/03 06:40:22;;;;;;;28.90;20.90;;;18.10;99.90;;;17.57;100.00;100603.47;4153182;28;20033;-81
2022/09/03 06:42:23;;;;;;;23.05;19.77;;;18.20;99.90;;;17.75;100.00;100607.34;4153658;28;20034;-82
2022/09/03 06:44:24;;;;;;;28.38;23.08;;;18.30;99.90;;;17.79;100.00;100605.94;4139415;28;20037;-81
2022/09/03 06:46:25;;;;;;;30.27;23.23;;;18.40;99.90;;;17.85;100.00;100607.78;4140760;28;20037;-81
2022/09/03 06:48:27;;;;;;;30.70;23.02;;;18.50;99.90;;;17.79;100.00;100605.94;4153808;28;20072;-81
2022/09/03 06:50:28;;;;;;;30.70;23.13;;;18.50;99.90;;;17.67;100.00;100597.72;4153759;28;20084;-81
2022/09/03 06:52:29;;;;;;;31.13;21.55;;;18.50;99.90;;;17.67;100.00;100608.41;4152618;28;20022;-81
2022/09/03 06:54:29;;;;;;;27.55;22.38;;;18.50;99.90;;;17.57;100.00;100602.63;4153754;28;20026;-81
2022/09/03 06:56:32;;;;;;;27.98;20.52;;;18.40;99.90;;;17.54;100.00;100611.00;4153769;28;20022;-81
2022/09/03 06:58:47;;;;;;;25.33;20.27;;;18.40;99.90;;;17.57;100.00;100622.13;4152041;28;20033;-81
2022/09/03 07:00:49;;;;;;;29.63;22.40;;;18.30;99.90;;;17.55;100.00;100618.03;4137629;28;20026;-81
2022/09/03 07:02:57;;;;;;;24.90;20.23;;;18.30;99.90;;;17.48;100.00;100612.66;4153339;28;20494;-82
2022/09/03 07:04:59;;;;;;;23.40;19.33;;;18.20;99.90;;;17.49;100.00;100611.63;4152147;28;20029;-82
2022/09/03 07:07:00;;;;;;;24.35;20.95;;;18.20;99.90;;;17.39;100.00;100610.38;4153456;28;20034;-82
2022/09/03 07:09:02;;;;;;;24.15;19.73;;;18.20;99.90;;;17.35;100.00;100601.97;4167910;28;20052;-82
2022/09/03 07:11:09;;;;;;;26.70;20.92;;;18.10;99.90;;;17.38;100.00;100611.44;4157552;28;20033;-81
2022/09/03 07:13:10;;;;;;;30.63;22.65;;;18.10;99.90;;;17.34;100.00;100600.34;4136116;28;20122;-81
2022/09/03 07:15:11;;;;;;;21.30;17.77;;;18.10;99.90;;;17.37;100.00;100599.94;4152094;28;20025;-81
2022/09/03 07:17:12;;;;;;;23.95;19.42;;;18.10;99.90;;;17.47;100.00;100605.66;4152215;28;20030;-81
2022/09/03 07:19:13;;;;;;;25.85;20.08;;;18.20;99.90;;;17.55;100.00;100613.53;4153420;28;20029;-81
2022/09/03 07:21:21;;;;;;;20.70;18.20;;;18.20;99.90;;;17.66;100.00;100610.25;4153250;28;20022;-82
2022/09/03 07:23:22;;;;;;;23.83;19.08;;;18.40;99.90;;;17.82;100.00;100613.53;4153336;28;20112;-81
2022/09/03 07:25:25;;;;;;;21.48;18.10;;;18.40;99.90;;;17.88;100.00;100596.69;4151718;28;20030;-81
2022/09/03 07:27:26;;;;;;;22.98;18.67;;;18.50;99.90;;;17.99;100.00;100602.22;4153076;28;20030;-81
2022/09/03 07:29:27;;;;;;;20.48;17.65;;;18.60;99.90;;;18.25;100.00;100630.69;4152071;28;20038;-81
2022/09/03 07:31:35;;;;;;;22.05;18.38;;;18.70;99.90;;;18.29;100.00;100615.09;4153339;28;20092;-81
2022/09/03 07:33:36;;;;;;;20.55;17.98;;;18.80;99.90;;;18.32;100.00;100618.16;4135899;28;20097;-81
2022/09/03 07:35:37;;;;;;;20.40;15.90;;;18.80;99.90;;;18.32;100.00;100604.81;4153130;28;20030;-82
2022/09/03 07:37:41;;;;;;;21.15;18.88;;;18.90;99.90;;;18.42;100.00;100628.41;4151829;28;20085;-82
2022/09/03 07:39:42;;;;;;;22.08;19.15;;;18.90;99.90;;;18.19;100.00;100619.00;4168003;28;20128;-82
2022/09/03 07:41:45;;;;;;;19.77;17.00;;;18.90;99.90;;;18.28;100.00;100627.63;4152969;28;20025;-81
2022/09/03 07:43:46;;;;;;;26.65;18.60;;;18.90;99.90;;;18.31;100.00;100618.38;4160140;28;20109;-81
2022/09/03 07:45:50;;;;;;;18.05;15.05;;;19.00;99.90;;;18.58;100.00;100634.13;4146382;28;20030;-81
2022/09/03 07:47:51;;;;;;;19.20;15.88;;;19.20;99.90;;;18.74;100.00;100647.03;4149771;28;20037;-81
2022/09/03 07:49:52;;;;;;;17.95;15.30;;;19.30;99.90;;;18.79;100.00;100630.38;4135275;28;20030;-82
2022/09/03 07:51:53;;;;;;;21.02;16.52;;;19.40;99.90;;;18.75;100.00;100635.34;4152999;28;20033;-82
2022/09/03 07:53:57;;;;;;;17.13;13.85;;;19.50;99.90;;;18.93;100.00;100644.50;4151789;28;20030;-82
2022/09/03 07:56:09;;;;;;;17.13;14.68;;;19.60;99.90;;;19.09;100.00;100668.06;4135445;28;20054;-82
2022/09/03 07:58:11;;;;;;;16.42;14.60;;;19.60;99.90;;;19.01;100.00;100641.59;4152843;28;20104;-81
2022/09/03 08:00:13;;;;;;;18.90;14.35;;;19.70;99.90;;;19.25;100.00;100665.72;4135457;28;20431;-82
2022/09/03 08:02:14;;;;;;;18.45;14.77;;;19.80;99.90;;;19.22;100.00;100652.78;4135222;28;20418;-81
2022/09/03 08:04:15;;;;;;;21.35;15.30;;;19.90;99.90;;;19.32;100.00;100647.78;4152015;28;20105;-81
2022/09/03 08:06:20;;;;;;;17.00;13.82;;;20.00;99.90;;;19.44;100.00;100653.31;4151337;28;20453;-82
2022/09/03 08:08:22;;;;;;;18.95;15.38;;;20.10;99.90;;;19.32;100.00;100645.09;4135278;28;20042;-82
2022/09/03 08:10:24;;;;;;;19.15;14.60;;;20.10;99.90;;;19.52;100.00;100671.78;4167831;28;20059;-82
2022/09/03 08:12:25;;;;;;;16.85;14.40;;;20.20;99.90;;;19.29;100.00;100647.41;4151119;28;20034;-82
2022/09/03 08:14:29;;;;;;;16.90;14.23;;;20.10;99.90;;;19.46;100.00;100651.22;4151290;28;20478;-82
2022/09/03 08:16:40;;;;;;;14.27;11.43;;;20.20;99.90;;;19.70;100.00;100669.19;4152526;28;20021;-82
2022/09/03 08:18:41;;;;;;;19.13;13.73;;;20.30;99.90;;;19.75;100.00;100645.25;4151432;28;20541;-81
2022/09/03 08:20:42;;;;;;;16.77;12.50;;;20.40;99.90;;;20.02;100.00;100671.78;4152823;28;20104;-82
2022/09/03 08:22:43;;;;;;;11.95;10.57;;;20.50;99.90;;;20.05;100.00;100656.13;4151327;28;20026;-82
2022/09/03 08:24:44;;;;;;;12.57;10.95;;;20.70;99.90;;;20.05;100.00;100660.66;4151208;28;20505;-81
2022/09/03 08:26:45;;;;;;;16.02;13.25;;;20.70;99.90;;;20.01;100.00;100672.84;4152323;28;20064;-82
2022/09/03 08:28:46;;;;;;;14.65;12.00;;;20.80;99.90;;;20.10;100.00;100668.88;4151528;28;20058;-81
2022/09/03 08:30:47;;;;;;;15.30;12.48;;;20.80;99.90;;;20.29;100.00;100674.06;4152474;28;20440;-82
2022/09/03 08:32:48;;;;;;;12.48;10.60;;;20.90;99.90;;;20.32;100.00;100684.31;4152244;28;20061;-81
2022/09/03 08:34:51;;;;;;;14.00;12.48;;;21.00;99.90;;;20.30;100.00;100688.28;4150941;28;20049;-82
2022/09/03 08:36:51;;;;;;;13.05;10.70;;;21.10;99.90;;;20.27;100.00;100680.69;4183810;28;20104;-78